Adrian, Michigan
Current Conditions -  °F | °C
As of 8:53 PM on Thursday 20 Nov 2014 (Local Time) from KADG Reporting Station
Broken Clouds Broken Clouds  
Wind Chill: 11°   Ceiling: 4800
Heat Index: 18°   Visibility: 10mi
Dew Point: 13°   Wind: 5mph
Humidity: 81%   Direction: 290°WNW
Pressure: 30.12"   Gusts: NA
Location:  41.9°N, 84.04°W
Report Text: KADG 210153Z AUTO 29004KT 10SM BKN048 BKN070 M08/M11 A3012 RMK AO2 SLP216 T10781106
Loading
Personal Weather Stations






























Interactive Weather Map New forecast layout! Learn more

10-Day Weather Forecast

Advertisements
Track Severe Weather on mobile